sensor_id;sensor_type;location;lat;lon;timestamp;temperature;humidity
52024;DHT22;38038;45.922;13.604;2024-01-10T00:01:45;0.80;99.90
52024;DHT22;38038;45.922;13.604;2024-01-10T00:04:11;0.80;99.50
52024;DHT22;38038;45.922;13.604;2024-01-10T00:06:37;0.80;99.80
52024;DHT22;38038;45.922;13.604;2024-01-10T00:09:02;0.90;99.60
52024;DHT22;38038;45.922;13.604;2024-01-10T00:11:28;0.80;99.70
52024;DHT22;38038;45.922;13.604;2024-01-10T00:13:54;0.80;99.90
52024;DHT22;38038;45.922;13.604;2024-01-10T00:16:25;0.70;99.90
52024;DHT22;38038;45.922;13.604;2024-01-10T00:18:51;0.70;99.90
52024;DHT22;38038;45.922;13.604;2024-01-10T00:21:17;0.70;99.90
52024;DHT22;38038;45.922;13.604;2024-01-10T00:23:42;0.70;99.90
52024;DHT22;38038;45.922;13.604;2024-01-10T00:26:08;0.70;99.90
52024;DHT22;38038;45.922;13.604;2024-01-10T00:28:34;0.70;99.90
52024;DHT22;38038;45.922;13.604;2024-01-10T00:30:59;0.70;99.90
52024;DHT22;38038;45.922;13.604;2024-01-10T00:33:25;0.60;99.90
52024;DHT22;38038;45.922;13.604;2024-01-10T00:35:51;0.60;99.90
52024;DHT22;38038;45.922;13.604;2024-01-10T00:38:16;0.70;99.90
52024;DHT22;38038;45.922;13.604;2024-01-10T00:40:42;0.70;99.90
52024;DHT22;38038;45.922;13.604;2024-01-10T00:43:08;0.60;99.90
52024;DHT22;38038;45.922;13.604;2024-01-10T00:45:33;0.70;99.90
52024;DHT22;38038;45.922;13.604;2024-01-10T00:47:59;0.80;99.90
52024;DHT22;38038;45.922;13.604;2024-01-10T00:50:25;0.70;99.90
52024;DHT22;38038;45.922;13.604;2024-01-10T00:52:51;0.70;99.80
52024;DHT22;38038;45.922;13.604;2024-01-10T00:55:16;0.80;99.50
52024;DHT22;38038;45.922;13.604;2024-01-10T00:57:42;0.80;99.30
52024;DHT22;38038;45.922;13.604;2024-01-10T01:00:09;0.80;99.80
52024;DHT22;38038;45.922;13.604;2024-01-10T01:02:36;0.80;99.50
52024;DHT22;38038;45.922;13.604;2024-01-10T01:05:02;0.80;99.20
52024;DHT22;38038;45.922;13.604;2024-01-10T01:07:28;0.70;99.70
52024;DHT22;38038;45.922;13.604;2024-01-10T01:09:54;0.60;99.80
52024;DHT22;38038;45.922;13.604;2024-01-10T01:12:19;0.60;99.60
52024;DHT22;38038;45.922;13.604;2024-01-10T01:14:45;0.60;99.90
52024;DHT22;38038;45.922;13.604;2024-01-10T01:17:11;0.60;99.90
52024;DHT22;38038;45.922;13.604;2024-01-10T01:19:36;0.60;99.60
52024;DHT22;38038;45.922;13.604;2024-01-10T01:22:02;0.70;99.90
52024;DHT22;38038;45.922;13.604;2024-01-10T01:24:28;0.60;99.90
52024;DHT22;38038;45.922;13.604;2024-01-10T01:26:54;0.50;99.90
52024;DHT22;38038;45.922;13.604;2024-01-10T01:29:20;0.50;99.90
52024;DHT22;38038;45.922;13.604;2024-01-10T01:31:46;0.50;99.90
52024;DHT22;38038;45.922;13.604;2024-01-10T01:34:12;0.40;99.90
52024;DHT22;38038;45.922;13.604;2024-01-10T01:36:38;0.50;99.90
52024;DHT22;38038;45.922;13.604;2024-01-10T01:39:05;0.50;99.90
52024;DHT22;38038;45.922;13.604;2024-01-10T01:41:31;0.50;99.90
52024;DHT22;38038;45.922;13.604;2024-01-10T01:43:57;0.50;99.90
52024;DHT22;38038;45.922;13.604;2024-01-10T01:46:23;0.40;99.90
52024;DHT22;38038;45.922;13.604;2024-01-10T01:48:49;0.40;99.90
52024;DHT22;38038;45.922;13.604;2024-01-10T01:51:16;0.30;99.90
52024;DHT22;38038;45.922;13.604;2024-01-10T01:53:44;0.20;99.90
52024;DHT22;38038;45.922;13.604;2024-01-10T01:56:11;0.10;99.90
52024;DHT22;38038;45.922;13.604;2024-01-10T01:58:37;0.20;99.90
52024;DHT22;38038;45.922;13.604;2024-01-10T02:01:05;0.40;99.90
52024;DHT22;38038;45.922;13.604;2024-01-10T02:03:31;0.30;99.90
52024;DHT22;38038;45.922;13.604;2024-01-10T02:05:58;0.30;99.90
52024;DHT22;38038;45.922;13.604;2024-01-10T02:08:24;0.40;99.90
52024;DHT22;38038;45.922;13.604;2024-01-10T02:10:49;0.30;99.90
52024;DHT22;38038;45.922;13.604;2024-01-10T02:13:16;0.30;99.90
52024;DHT22;38038;45.922;13.604;2024-01-10T02:15:42;0.30;99.90
52024;DHT22;38038;45.922;13.604;2024-01-10T02:18:08;0.30;99.90
52024;DHT22;38038;45.922;13.604;2024-01-10T02:20:38;0.40;99.90
52024;DHT22;38038;45.922;13.604;2024-01-10T02:23:04;0.30;99.90
52024;DHT22;38038;45.922;13.604;2024-01-10T02:25:30;0.40;99.90
52024;DHT22;38038;45.922;13.604;2024-01-10T02:27:55;0.40;99.90
52024;DHT22;38038;45.922;13.604;2024-01-10T02:30:21;0.40;99.90
52024;DHT22;38038;45.922;13.604;2024-01-10T02:32:47;0.40;99.90
52024;DHT22;38038;45.922;13.604;2024-01-10T02:35:12;0.40;99.90
52024;DHT22;38038;45.922;13.604;2024-01-10T02:37:38;0.40;99.90
52024;DHT22;38038;45.922;13.604;2024-01-10T02:40:04;0.40;99.90
52024;DHT22;38038;45.922;13.604;2024-01-10T02:42:33;0.50;99.90
52024;DHT22;38038;45.922;13.604;2024-01-10T02:44:59;0.50;99.90
52024;DHT22;38038;45.922;13.604;2024-01-10T02:47:24;0.50;99.90
52024;DHT22;38038;45.922;13.604;2024-01-10T02:49:50;0.50;99.90
52024;DHT22;38038;45.922;13.604;2024-01-10T02:52:16;0.50;99.90
52024;DHT22;38038;45.922;13.604;2024-01-10T02:54:42;0.50;99.90
52024;DHT22;38038;45.922;13.604;2024-01-10T02:57:07;0.50;99.90
52024;DHT22;38038;45.922;13.604;2024-01-10T02:59:33;0.50;99.70
52024;DHT22;38038;45.922;13.604;2024-01-10T03:01:59;0.50;99.70
52024;DHT22;38038;45.922;13.604;2024-01-10T03:04:24;0.60;99.70
52024;DHT22;38038;45.922;13.604;2024-01-10T03:06:50;0.60;99.50
52024;DHT22;38038;45.922;13.604;2024-01-10T03:09:16;0.50;99.80
52024;DHT22;38038;45.922;13.604;2024-01-10T03:11:41;0.50;99.70
52024;DHT22;38038;45.922;13.604;2024-01-10T03:14:09;0.50;99.70
52024;DHT22;38038;45.922;13.604;2024-01-10T03:16:34;0.50;99.80
52024;DHT22;38038;45.922;13.604;2024-01-10T03:19:01;0.50;99.40
52024;DHT22;38038;45.922;13.604;2024-01-10T03:21:27;0.50;99.40
52024;DHT22;38038;45.922;13.604;2024-01-10T03:23:57;0.50;99.50
52024;DHT22;38038;45.922;13.604;2024-01-10T03:26:24;0.50;99.50
52024;DHT22;38038;45.922;13.604;2024-01-10T03:28:49;0.50;99.30
52024;DHT22;38038;45.922;13.604;2024-01-10T03:31:16;0.60;99.30
52024;DHT22;38038;45.922;13.604;2024-01-10T03:33:42;0.50;99.00
52024;DHT22;38038;45.922;13.604;2024-01-10T03:36:11;0.50;99.00
52024;DHT22;38038;45.922;13.604;2024-01-10T03:38:37;0.50;99.30
52024;DHT22;38038;45.922;13.604;2024-01-10T03:41:03;0.50;99.30
52024;DHT22;38038;45.922;13.604;2024-01-10T03:43:28;0.40;99.20
52024;DHT22;38038;45.922;13.604;2024-01-10T03:45:54;0.40;99.40
52024;DHT22;38038;45.922;13.604;2024-01-10T03:48:20;0.40;99.60
52024;DHT22;38038;45.922;13.604;2024-01-10T03:50:46;0.40;99.30
52024;DHT22;38038;45.922;13.604;2024-01-10T03:53:11;0.50;99.20
52024;DHT22;38038;45.922;13.604;2024-01-10T03:55:37;0.40;99.10
52024;DHT22;38038;45.922;13.604;2024-01-10T03:58:04;0.50;99.40
52024;DHT22;38038;45.922;13.604;2024-01-10T04:00:30;0.40;99.20
52024;DHT22;38038;45.922;13.604;2024-01-10T04:02:56;0.40;99.30
52024;DHT22;38038;45.922;13.604;2024-01-10T04:05:22;0.40;98.90
52024;DHT22;38038;45.922;13.604;2024-01-10T04:07:50;0.40;99.00
52024;DHT22;38038;45.922;13.604;2024-01-10T04:10:16;0.40;98.90
52024;DHT22;38038;45.922;13.604;2024-01-10T04:12:43;0.40;98.60
52024;DHT22;38038;45.922;13.604;2024-01-10T04:15:09;0.50;98.70
52024;DHT22;38038;45.922;13.604;2024-01-10T04:17:35;0.40;98.60
52024;DHT22;38038;45.922;13.604;2024-01-10T04:20:01;0.40;98.90
52024;DHT22;38038;45.922;13.604;2024-01-10T04:22:27;0.40;98.80
52024;DHT22;38038;45.922;13.604;2024-01-10T04:24:53;0.50;98.90
52024;DHT22;38038;45.922;13.604;2024-01-10T04:27:19;0.40;99.20
52024;DHT22;38038;45.922;13.604;2024-01-10T04:29:44;0.40;98.90
52024;DHT22;38038;45.922;13.604;2024-01-10T04:32:10;0.40;98.80
52024;DHT22;38038;45.922;13.604;2024-01-10T04:34:36;0.50;98.90
52024;DHT22;38038;45.922;13.604;2024-01-10T04:37:02;0.50;98.90
52024;DHT22;38038;45.922;13.604;2024-01-10T04:39:27;0.50;98.90
52024;DHT22;38038;45.922;13.604;2024-01-10T04:41:53;0.40;98.70
52024;DHT22;38038;45.922;13.604;2024-01-10T04:44:19;0.40;98.80
52024;DHT22;38038;45.922;13.604;2024-01-10T04:46:45;0.40;99.00
52024;DHT22;38038;45.922;13.604;2024-01-10T04:49:11;0.50;98.80
52024;DHT22;38038;45.922;13.604;2024-01-10T04:51:37;0.50;98.80
52024;DHT22;38038;45.922;13.604;2024-01-10T04:54:03;0.50;98.60
52024;DHT22;38038;45.922;13.604;2024-01-10T04:56:29;0.40;98.70
52024;DHT22;38038;45.922;13.604;2024-01-10T04:58:55;0.40;98.70
52024;DHT22;38038;45.922;13.604;2024-01-10T05:01:20;0.40;99.00
52024;DHT22;38038;45.922;13.604;2024-01-10T05:03:46;0.40;98.80
52024;DHT22;38038;45.922;13.604;2024-01-10T05:06:12;0.40;99.10
52024;DHT22;38038;45.922;13.604;2024-01-10T05:08:37;0.40;98.70
52024;DHT22;38038;45.922;13.604;2024-01-10T05:11:03;0.50;98.80
52024;DHT22;38038;45.922;13.604;2024-01-10T05:13:29;0.50;98.40
52024;DHT22;38038;45.922;13.604;2024-01-10T05:15:55;0.50;98.40
52024;DHT22;38038;45.922;13.604;2024-01-10T05:18:21;0.50;98.40
52024;DHT22;38038;45.922;13.604;2024-01-10T05:20:46;0.50;98.20
52024;DHT22;38038;45.922;13.604;2024-01-10T05:23:12;0.50;97.90
52024;DHT22;38038;45.922;13.604;2024-01-10T05:25:38;0.60;97.90
52024;DHT22;38038;45.922;13.604;2024-01-10T05:28:04;0.60;98.00
52024;DHT22;38038;45.922;13.604;2024-01-10T05:30:30;0.60;97.70
52024;DHT22;38038;45.922;13.604;2024-01-10T05:32:57;0.60;98.20
52024;DHT22;38038;45.922;13.604;2024-01-10T05:35:24;0.60;97.60
52024;DHT22;38038;45.922;13.604;2024-01-10T05:37:51;0.60;97.90
52024;DHT22;38038;45.922;13.604;2024-01-10T05:40:20;0.60;97.20
52024;DHT22;38038;45.922;13.604;2024-01-10T05:42:45;0.60;97.50
52024;DHT22;38038;45.922;13.604;2024-01-10T05:45:11;0.60;97.90
52024;DHT22;38038;45.922;13.604;2024-01-10T05:47:37;0.60;97.50
52024;DHT22;38038;45.922;13.604;2024-01-10T05:50:03;0.60;97.60
52024;DHT22;38038;45.922;13.604;2024-01-10T05:52:31;0.60;97.40
52024;DHT22;38038;45.922;13.604;2024-01-10T05:54:59;0.60;97.30
52024;DHT22;38038;45.922;13.604;2024-01-10T05:57:27;0.60;97.50
52024;DHT22;38038;45.922;13.604;2024-01-10T05:59:53;0.60;97.30
52024;DHT22;38038;45.922;13.604;2024-01-10T06:02:23;0.60;97.40
52024;DHT22;38038;45.922;13.604;2024-01-10T06:04:50;0.70;96.90
52024;DHT22;38038;45.922;13.604;2024-01-10T06:07:15;0.70;97.40
52024;DHT22;38038;45.922;13.604;2024-01-10T06:09:41;0.60;97.50
52024;DHT22;38038;45.922;13.604;2024-01-10T06:12:09;0.60;97.40
52024;DHT22;38038;45.922;13.604;2024-01-10T06:14:35;0.50;97.30
52024;DHT22;38038;45.922;13.604;2024-01-10T06:17:01;0.50;97.20
52024;DHT22;38038;45.922;13.604;2024-01-10T06:19:29;0.50;97.20
52024;DHT22;38038;45.922;13.604;2024-01-10T06:21:56;0.50;97.20
52024;DHT22;38038;45.922;13.604;2024-01-10T06:24:22;0.50;97.70
52024;DHT22;38038;45.922;13.604;2024-01-10T06:26:48;0.40;97.90
52024;DHT22;38038;45.922;13.604;2024-01-10T06:29:15;0.40;97.70
52024;DHT22;38038;45.922;13.604;2024-01-10T06:31:41;0.40;97.60
52024;DHT22;38038;45.922;13.604;2024-01-10T06:34:08;0.40;97.40
52024;DHT22;38038;45.922;13.604;2024-01-10T06:36:34;0.60;97.20
52024;DHT22;38038;45.922;13.604;2024-01-10T06:38:59;0.60;97.10
52024;DHT22;38038;45.922;13.604;2024-01-10T06:41:25;0.60;97.10
52024;DHT22;38038;45.922;13.604;2024-01-10T06:43:51;0.70;96.60
52024;DHT22;38038;45.922;13.604;2024-01-10T06:46:18;0.60;97.10
52024;DHT22;38038;45.922;13.604;2024-01-10T06:48:43;0.70;96.60
52024;DHT22;38038;45.922;13.604;2024-01-10T06:51:10;0.70;97.10
52024;DHT22;38038;45.922;13.604;2024-01-10T06:53:37;0.70;97.20
52024;DHT22;38038;45.922;13.604;2024-01-10T06:56:04;0.70;96.80
52024;DHT22;38038;45.922;13.604;2024-01-10T06:58:29;0.70;96.80
52024;DHT22;38038;45.922;13.604;2024-01-10T07:00:55;0.70;97.00
52024;DHT22;38038;45.922;13.604;2024-01-10T07:03:21;0.70;97.10
52024;DHT22;38038;45.922;13.604;2024-01-10T07:05:46;0.70;97.50
52024;DHT22;38038;45.922;13.604;2024-01-10T07:08:12;0.70;97.20
52024;DHT22;38038;45.922;13.604;2024-01-10T07:10:38;0.80;97.20
52024;DHT22;38038;45.922;13.604;2024-01-10T07:13:04;0.70;97.40
52024;DHT22;38038;45.922;13.604;2024-01-10T07:15:30;0.80;97.50
52024;DHT22;38038;45.922;13.604;2024-01-10T07:17:56;0.80;97.60
52024;DHT22;38038;45.922;13.604;2024-01-10T07:20:22;0.80;97.40
52024;DHT22;38038;45.922;13.604;2024-01-10T07:22:50;0.90;97.20
52024;DHT22;38038;45.922;13.604;2024-01-10T07:25:17;1.00;97.00
52024;DHT22;38038;45.922;13.604;2024-01-10T07:27:43;1.00;97.20
52024;DHT22;38038;45.922;13.604;2024-01-10T07:30:09;1.00;97.40
52024;DHT22;38038;45.922;13.604;2024-01-10T07:32:42;1.10;97.10
52024;DHT22;38038;45.922;13.604;2024-01-10T07:35:09;1.10;97.10
52024;DHT22;38038;45.922;13.604;2024-01-10T07:37:39;1.10;97.10
52024;DHT22;38038;45.922;13.604;2024-01-10T07:40:08;1.10;96.90
52024;DHT22;38038;45.922;13.604;2024-01-10T07:42:34;1.20;96.80
52024;DHT22;38038;45.922;13.604;2024-01-10T07:45:01;1.20;96.30
52024;DHT22;38038;45.922;13.604;2024-01-10T07:47:31;1.30;96.50
52024;DHT22;38038;45.922;13.604;2024-01-10T07:49:57;1.30;96.70
52024;DHT22;38038;45.922;13.604;2024-01-10T07:52:23;1.30;96.20
52024;DHT22;38038;45.922;13.604;2024-01-10T07:54:49;1.20;96.70
52024;DHT22;38038;45.922;13.604;2024-01-10T07:57:15;1.40;96.20
52024;DHT22;38038;45.922;13.604;2024-01-10T07:59:44;1.50;96.30
52024;DHT22;38038;45.922;13.604;2024-01-10T08:02:10;1.50;96.00
52024;DHT22;38038;45.922;13.604;2024-01-10T08:04:37;1.60;95.70
52024;DHT22;38038;45.922;13.604;2024-01-10T08:07:03;1.60;95.60
52024;DHT22;38038;45.922;13.604;2024-01-10T08:09:29;1.60;95.60
52024;DHT22;38038;45.922;13.604;2024-01-10T08:11:54;1.70;95.20
52024;DHT22;38038;45.922;13.604;2024-01-10T08:14:20;1.80;95.60
52024;DHT22;38038;45.922;13.604;2024-01-10T08:16:46;1.80;95.70
52024;DHT22;38038;45.922;13.604;2024-01-10T08:19:12;1.80;95.30
52024;DHT22;38038;45.922;13.604;2024-01-10T08:21:37;1.80;95.50
52024;DHT22;38038;45.922;13.604;2024-01-10T08:24:04;1.80;95.50
52024;DHT22;38038;45.922;13.604;2024-01-10T08:26:31;2.00;94.90
52024;DHT22;38038;45.922;13.604;2024-01-10T08:28:57;2.10;94.90
52024;DHT22;38038;45.922;13.604;2024-01-10T08:31:22;2.00;94.70
52024;DHT22;38038;45.922;13.604;2024-01-10T08:33:49;2.10;94.60
52024;DHT22;38038;45.922;13.604;2024-01-10T08:36:15;2.10;95.00
52024;DHT22;38038;45.922;13.604;2024-01-10T08:38:41;2.10;94.80
52024;DHT22;38038;45.922;13.604;2024-01-10T08:41:08;2.20;94.80
52024;DHT22;38038;45.922;13.604;2024-01-10T08:43:37;2.20;94.80
52024;DHT22;38038;45.922;13.604;2024-01-10T08:46:04;2.20;95.00
52024;DHT22;38038;45.922;13.604;2024-01-10T08:48:29;2.20;94.60
52024;DHT22;38038;45.922;13.604;2024-01-10T08:50:55;2.30;94.80
52024;DHT22;38038;45.922;13.604;2024-01-10T08:53:22;2.40;94.40
52024;DHT22;38038;45.922;13.604;2024-01-10T08:55:48;2.40;94.40
52024;DHT22;38038;45.922;13.604;2024-01-10T08:58:14;2.40;94.70
52024;DHT22;38038;45.922;13.604;2024-01-10T09:00:39;2.50;95.10
52024;DHT22;38038;45.922;13.604;2024-01-10T09:03:05;2.50;94.90
52024;DHT22;38038;45.922;13.604;2024-01-10T09:05:31;2.70;94.10
52024;DHT22;38038;45.922;13.604;2024-01-10T09:07:58;2.60;94.70
52024;DHT22;38038;45.922;13.604;2024-01-10T09:10:23;2.70;94.70
52024;DHT22;38038;45.922;13.604;2024-01-10T09:12:53;2.80;94.60
52024;DHT22;38038;45.922;13.604;2024-01-10T09:15:19;2.90;94.50
52024;DHT22;38038;45.922;13.604;2024-01-10T09:17:45;2.90;94.00
52024;DHT22;38038;45.922;13.604;2024-01-10T09:20:12;3.00;94.40
52024;DHT22;38038;45.922;13.604;2024-01-10T09:22:39;3.10;94.50
52024;DHT22;38038;45.922;13.604;2024-01-10T09:25:05;2.90;94.30
52024;DHT22;38038;45.922;13.604;2024-01-10T09:27:33;3.10;94.00
52024;DHT22;38038;45.922;13.604;2024-01-10T09:30:02;3.10;94.10
52024;DHT22;38038;45.922;13.604;2024-01-10T09:32:29;3.10;93.10
52024;DHT22;38038;45.922;13.604;2024-01-10T09:34:55;3.10;93.20
52024;DHT22;38038;45.922;13.604;2024-01-10T09:37:21;3.10;93.50
52024;DHT22;38038;45.922;13.604;2024-01-10T09:39:48;3.10;93.40
52024;DHT22;38038;45.922;13.604;2024-01-10T09:42:14;3.10;94.00
52024;DHT22;38038;45.922;13.604;2024-01-10T09:44:41;3.10;93.70
52024;DHT22;38038;45.922;13.604;2024-01-10T09:47:07;3.20;93.50
52024;DHT22;38038;45.922;13.604;2024-01-10T09:49:34;3.20;93.00
52024;DHT22;38038;45.922;13.604;2024-01-10T09:52:04;3.20;93.80
52024;DHT22;38038;45.922;13.604;2024-01-10T09:54:30;3.30;93.50
52024;DHT22;38038;45.922;13.604;2024-01-10T09:56:59;3.40;93.80
52024;DHT22;38038;45.922;13.604;2024-01-10T09:59:25;3.40;93.30
52024;DHT22;38038;45.922;13.604;2024-01-10T10:01:55;3.50;93.00
52024;DHT22;38038;45.922;13.604;2024-01-10T10:04:22;3.60;93.50
52024;DHT22;38038;45.922;13.604;2024-01-10T10:06:58;3.50;93.40
52024;DHT22;38038;45.922;13.604;2024-01-10T10:09:26;3.60;93.70
52024;DHT22;38038;45.922;13.604;2024-01-10T10:11:56;3.50;93.50
52024;DHT22;38038;45.922;13.604;2024-01-10T10:14:28;3.50;94.10
52024;DHT22;38038;45.922;13.604;2024-01-10T10:16:55;3.40;94.00
52024;DHT22;38038;45.922;13.604;2024-01-10T10:19:24;3.60;93.70
52024;DHT22;38038;45.922;13.604;2024-01-10T10:21:50;3.60;93.60
52024;DHT22;38038;45.922;13.604;2024-01-10T10:24:16;3.70;93.40
52024;DHT22;38038;45.922;13.604;2024-01-10T10:26:42;3.80;92.90
52024;DHT22;38038;45.922;13.604;2024-01-10T10:29:09;3.90;92.80
52024;DHT22;38038;45.922;13.604;2024-01-10T10:31:35;3.90;93.00
52024;DHT22;38038;45.922;13.604;2024-01-10T10:34:01;4.00;92.80
52024;DHT22;38038;45.922;13.604;2024-01-10T10:36:29;4.10;92.70
52024;DHT22;38038;45.922;13.604;2024-01-10T10:38:55;4.10;92.70
52024;DHT22;38038;45.922;13.604;2024-01-10T10:41:21;4.10;92.50
52024;DHT22;38038;45.922;13.604;2024-01-10T10:43:47;4.10;92.60
52024;DHT22;38038;45.922;13.604;2024-01-10T10:46:15;4.20;92.60
52024;DHT22;38038;45.922;13.604;2024-01-10T10:48:42;4.40;92.40
52024;DHT22;38038;45.922;13.604;2024-01-10T10:51:32;4.40;92.90
52024;DHT22;38038;45.922;13.604;2024-01-10T10:53:59;4.50;92.10
52024;DHT22;38038;45.922;13.604;2024-01-10T10:56:29;4.50;92.50
52024;DHT22;38038;45.922;13.604;2024-01-10T10:58:58;4.60;91.50
52024;DHT22;38038;45.922;13.604;2024-01-10T11:01:25;4.60;91.70
52024;DHT22;38038;45.922;13.604;2024-01-10T11:03:52;4.80;91.90
52024;DHT22;38038;45.922;13.604;2024-01-10T11:06:19;4.90;91.40
52024;DHT22;38038;45.922;13.604;2024-01-10T11:08:52;5.00;91.40
52024;DHT22;38038;45.922;13.604;2024-01-10T11:20:21;4.80;91.40
52024;DHT22;38038;45.922;13.604;2024-01-10T11:25:35;5.00;91.00
52024;DHT22;38038;45.922;13.604;2024-01-10T11:28:05;4.90;90.00
52024;DHT22;38038;45.922;13.604;2024-01-10T11:30:35;5.10;90.70
52024;DHT22;38038;45.922;13.604;2024-01-10T11:33:02;5.10;90.80
52024;DHT22;38038;45.922;13.604;2024-01-10T11:35:28;5.20;90.10
52024;DHT22;38038;45.922;13.604;2024-01-10T11:37:59;5.10;89.80
52024;DHT22;38038;45.922;13.604;2024-01-10T11:40:47;5.20;90.10
52024;DHT22;38038;45.922;13.604;2024-01-10T11:43:15;5.10;90.20
52024;DHT22;38038;45.922;13.604;2024-01-10T11:45:55;5.10;90.50
52024;DHT22;38038;45.922;13.604;2024-01-10T11:48:28;5.20;90.70
52024;DHT22;38038;45.922;13.604;2024-01-10T11:50:54;5.20;90.00
52024;DHT22;38038;45.922;13.604;2024-01-10T11:53:43;5.30;88.50
52024;DHT22;38038;45.922;13.604;2024-01-10T11:56:13;5.20;87.80
52024;DHT22;38038;45.922;13.604;2024-01-10T11:59:10;5.30;87.70
52024;DHT22;38038;45.922;13.604;2024-01-10T12:01:40;5.40;89.60
52024;DHT22;38038;45.922;13.604;2024-01-10T12:04:06;5.40;87.80
52024;DHT22;38038;45.922;13.604;2024-01-10T12:06:35;5.50;88.80
52024;DHT22;38038;45.922;13.604;2024-01-10T12:09:02;5.40;88.40
52024;DHT22;38038;45.922;13.604;2024-01-10T12:11:36;5.30;87.20
52024;DHT22;38038;45.922;13.604;2024-01-10T12:14:02;5.40;86.40
52024;DHT22;38038;45.922;13.604;2024-01-10T12:16:28;5.40;87.30
52024;DHT22;38038;45.922;13.604;2024-01-10T12:18:55;5.50;88.10
52024;DHT22;38038;45.922;13.604;2024-01-10T12:21:20;5.50;88.90
52024;DHT22;38038;45.922;13.604;2024-01-10T12:23:47;5.40;89.10
52024;DHT22;38038;45.922;13.604;2024-01-10T12:26:14;5.40;89.10
52024;DHT22;38038;45.922;13.604;2024-01-10T12:28:40;5.30;88.50
52024;DHT22;38038;45.922;13.604;2024-01-10T12:31:08;5.30;89.20
52024;DHT22;38038;45.922;13.604;2024-01-10T12:33:34;5.40;87.20
52024;DHT22;38038;45.922;13.604;2024-01-10T12:36:11;5.40;89.10
52024;DHT22;38038;45.922;13.604;2024-01-10T12:38:38;5.50;88.70
52024;DHT22;38038;45.922;13.604;2024-01-10T12:41:04;5.40;89.80
52024;DHT22;38038;45.922;13.604;2024-01-10T12:43:31;5.30;89.20
52024;DHT22;38038;45.922;13.604;2024-01-10T12:46:23;5.20;89.50
52024;DHT22;38038;45.922;13.604;2024-01-10T12:49:18;5.20;90.20
52024;DHT22;38038;45.922;13.604;2024-01-10T12:51:44;5.20;89.80
52024;DHT22;38038;45.922;13.604;2024-01-10T12:54:09;5.30;89.30
52024;DHT22;38038;45.922;13.604;2024-01-10T12:56:35;5.30;90.00
52024;DHT22;38038;45.922;13.604;2024-01-10T12:59:01;5.30;89.00
52024;DHT22;38038;45.922;13.604;2024-01-10T13:01:26;5.30;89.50
52024;DHT22;38038;45.922;13.604;2024-01-10T13:03:52;5.20;89.30
52024;DHT22;38038;45.922;13.604;2024-01-10T13:06:18;5.30;89.50
52024;DHT22;38038;45.922;13.604;2024-01-10T13:08:48;5.20;90.20
52024;DHT22;38038;45.922;13.604;2024-01-10T13:11:14;5.20;88.10
52024;DHT22;38038;45.922;13.604;2024-01-10T13:13:40;5.10;88.00
52024;DHT22;38038;45.922;13.604;2024-01-10T13:16:07;5.10;87.30
52024;DHT22;38038;45.922;13.604;2024-01-10T13:18:32;5.10;87.80
52024;DHT22;38038;45.922;13.604;2024-01-10T13:20:59;5.20;88.00
52024;DHT22;38038;45.922;13.604;2024-01-10T13:23:24;5.20;88.00
52024;DHT22;38038;45.922;13.604;2024-01-10T13:25:51;5.20;86.90
52024;DHT22;38038;45.922;13.604;2024-01-10T13:28:18;5.20;87.40
52024;DHT22;38038;45.922;13.604;2024-01-10T13:30:44;5.20;87.40
52024;DHT22;38038;45.922;13.604;2024-01-10T13:33:10;5.10;87.10
52024;DHT22;38038;45.922;13.604;2024-01-10T13:35:36;5.00;86.30
52024;DHT22;38038;45.922;13.604;2024-01-10T13:38:03;5.00;87.30
52024;DHT22;38038;45.922;13.604;2024-01-10T13:40:28;5.00;86.20
52024;DHT22;38038;45.922;13.604;2024-01-10T13:42:54;4.90;85.90
52024;DHT22;38038;45.922;13.604;2024-01-10T13:45:20;4.90;86.30
52024;DHT22;38038;45.922;13.604;2024-01-10T13:47:47;4.90;86.50
52024;DHT22;38038;45.922;13.604;2024-01-10T13:50:14;4.90;87.00
52024;DHT22;38038;45.922;13.604;2024-01-10T13:52:40;5.00;85.80
52024;DHT22;38038;45.922;13.604;2024-01-10T13:55:06;5.00;85.40
52024;DHT22;38038;45.922;13.604;2024-01-10T13:57:33;4.90;83.00
52024;DHT22;38038;45.922;13.604;2024-01-10T14:00:00;5.00;85.60
52024;DHT22;38038;45.922;13.604;2024-01-10T14:02:26;4.90;85.50
52024;DHT22;38038;45.922;13.604;2024-01-10T14:04:52;4.90;85.40
52024;DHT22;38038;45.922;13.604;2024-01-10T14:07:20;4.90;85.20
52024;DHT22;38038;45.922;13.604;2024-01-10T14:09:46;4.90;85.40
52024;DHT22;38038;45.922;13.604;2024-01-10T14:12:12;4.90;84.80
52024;DHT22;38038;45.922;13.604;2024-01-10T14:14:38;4.80;84.70
52024;DHT22;38038;45.922;13.604;2024-01-10T14:17:04;4.80;84.90
52024;DHT22;38038;45.922;13.604;2024-01-10T14:19:30;4.80;84.90
52024;DHT22;38038;45.922;13.604;2024-01-10T14:21:57;4.80;84.00
52024;DHT22;38038;45.922;13.604;2024-01-10T14:24:23;4.80;83.80
52024;DHT22;38038;45.922;13.604;2024-01-10T14:26:50;4.80;83.60
52024;DHT22;38038;45.922;13.604;2024-01-10T14:29:16;4.80;84.50
52024;DHT22;38038;45.922;13.604;2024-01-10T14:31:41;4.80;83.70
52024;DHT22;38038;45.922;13.604;2024-01-10T14:34:07;4.90;84.40
52024;DHT22;38038;45.922;13.604;2024-01-10T14:36:33;4.70;82.80
52024;DHT22;38038;45.922;13.604;2024-01-10T14:38:59;4.50;83.90
52024;DHT22;38038;45.922;13.604;2024-01-10T14:41:25;4.50;85.00
52024;DHT22;38038;45.922;13.604;2024-01-10T14:43:51;4.30;85.20
52024;DHT22;38038;45.922;13.604;2024-01-10T14:46:17;4.30;83.60
52024;DHT22;38038;45.922;13.604;2024-01-10T14:48:43;4.40;83.20
52024;DHT22;38038;45.922;13.604;2024-01-10T14:51:08;4.40;83.70
52024;DHT22;38038;45.922;13.604;2024-01-10T14:53:34;4.30;82.70
52024;DHT22;38038;45.922;13.604;2024-01-10T14:56:01;4.40;83.60
52024;DHT22;38038;45.922;13.604;2024-01-10T14:58:27;4.20;83.00
52024;DHT22;38038;45.922;13.604;2024-01-10T15:00:53;4.20;84.00
52024;DHT22;38038;45.922;13.604;2024-01-10T15:03:18;4.20;82.80
52024;DHT22;38038;45.922;13.604;2024-01-10T15:05:44;4.20;83.30
52024;DHT22;38038;45.922;13.604;2024-01-10T15:08:11;4.10;82.90
52024;DHT22;38038;45.922;13.604;2024-01-10T15:10:36;4.10;83.10
52024;DHT22;38038;45.922;13.604;2024-01-10T15:13:09;4.00;84.00
52024;DHT22;38038;45.922;13.604;2024-01-10T15:15:37;4.00;83.60
52024;DHT22;38038;45.922;13.604;2024-01-10T15:18:04;3.90;83.70
52024;DHT22;38038;45.922;13.604;2024-01-10T15:20:29;3.90;82.40
52024;DHT22;38038;45.922;13.604;2024-01-10T15:22:56;3.80;82.70
52024;DHT22;38038;45.922;13.604;2024-01-10T15:25:23;3.80;82.40
52024;DHT22;38038;45.922;13.604;2024-01-10T15:27:50;3.70;83.60
52024;DHT22;38038;45.922;13.604;2024-01-10T15:30:16;3.70;82.70
52024;DHT22;38038;45.922;13.604;2024-01-10T15:32:44;3.60;83.30
52024;DHT22;38038;45.922;13.604;2024-01-10T15:35:09;3.70;81.60
52024;DHT22;38038;45.922;13.604;2024-01-10T15:37:35;3.60;81.60
52024;DHT22;38038;45.922;13.604;2024-01-10T15:40:01;3.60;81.50